createdAt,value
2022-12-25T00:01:45.297Z,2.61
2022-12-25T00:04:14.481Z,2.51
2022-12-25T00:06:43.771Z,2.51
2022-12-25T00:09:13.015Z,2.45
2022-12-25T00:11:43.679Z,2.46
2022-12-25T00:14:12.820Z,2.45
2022-12-25T00:16:42.101Z,2.47
2022-12-25T00:19:11.324Z,2.37
2022-12-25T00:21:40.510Z,2.45
2022-12-25T00:24:10.681Z,2.48
2022-12-25T00:26:40.591Z,2.42
2022-12-25T00:29:14.860Z,2.50
2022-12-25T00:31:44.067Z,2.50
2022-12-25T00:34:13.532Z,2.61
2022-12-25T00:36:42.630Z,2.71
2022-12-25T00:39:11.796Z,2.79
2022-12-25T00:41:54.902Z,2.71
2022-12-25T00:44:25.492Z,2.69
2022-12-25T00:46:54.811Z,2.73
2022-12-25T00:49:24.879Z,2.60
2022-12-25T00:51:55.316Z,2.58
2022-12-25T00:54:24.457Z,2.51
2022-12-25T00:56:53.709Z,2.44
2022-12-25T00:59:24.391Z,2.44
2022-12-25T01:01:53.726Z,2.45
2022-12-25T01:04:22.971Z,2.51
2022-12-25T01:06:52.146Z,2.51
2022-12-25T01:09:38.762Z,2.54
2022-12-25T01:12:08.388Z,2.61
2022-12-25T01:14:38.846Z,2.72
2022-12-25T01:17:07.945Z,2.74
2022-12-25T01:19:37.168Z,2.71
2022-12-25T01:22:06.244Z,2.74
2022-12-25T01:24:35.355Z,2.87
2022-12-25T01:27:04.469Z,2.84
2022-12-25T01:29:33.574Z,2.82
2022-12-25T01:32:04.204Z,2.77
2022-12-25T01:34:33.967Z,2.74
2022-12-25T01:37:03.524Z,2.64
2022-12-25T01:39:33.244Z,2.66
2022-12-25T01:42:02.317Z,2.66
2022-12-25T01:45:36.997Z,2.63
2022-12-25T01:48:13.249Z,2.63
2022-12-25T01:50:51.302Z,2.62
2022-12-25T01:53:20.493Z,2.63
2022-12-25T01:55:52.327Z,2.83
2022-12-25T01:58:22.336Z,2.92
2022-12-25T02:00:53.283Z,2.88
2022-12-25T02:03:24.759Z,2.87
2022-12-25T02:05:54.443Z,2.77
2022-12-25T02:08:24.350Z,2.72
2022-12-25T02:10:53.469Z,2.70
2022-12-25T02:13:22.799Z,2.69
2022-12-25T02:16:01.221Z,2.71
2022-12-25T02:18:43.614Z,2.74
2022-12-25T02:21:49.972Z,2.69
2022-12-25T02:24:48.619Z,2.68
2022-12-25T02:27:30.251Z,2.70
2022-12-25T02:30:06.656Z,2.76
2022-12-25T02:32:44.211Z,2.85
2022-12-25T02:35:18.486Z,2.89
2022-12-25T02:37:52.928Z,3.01
2022-12-25T02:40:30.823Z,3.01
2022-12-25T02:43:22.657Z,3.05
2022-12-25T02:46:23.891Z,3.17
2022-12-25T02:49:11.511Z,3.06
2022-12-25T02:52:03.686Z,3.04
2022-12-25T02:54:51.877Z,2.93
2022-12-25T02:57:44.859Z,2.98
2022-12-25T03:00:33.586Z,2.92
2022-12-25T03:03:26.089Z,2.92
2022-12-25T03:06:17.272Z,3.07
2022-12-25T03:08:53.139Z,2.98
2022-12-25T03:11:33.378Z,2.90
2022-12-25T03:14:21.407Z,2.83
2022-12-25T03:16:54.362Z,2.91
2022-12-25T03:19:47.914Z,2.92
2022-12-25T03:22:40.542Z,2.95
2022-12-25T03:25:37.043Z,2.88
2022-12-25T03:28:07.054Z,2.79
2022-12-25T03:31:02.852Z,2.75
2022-12-25T03:34:08.082Z,2.67
2022-12-25T03:36:50.654Z,2.66
2022-12-25T03:39:56.314Z,2.73
2022-12-25T03:43:00.978Z,2.66
2022-12-25T03:45:56.033Z,2.60
2022-12-25T03:48:44.775Z,2.47
2022-12-25T03:51:34.136Z,2.37
2022-12-25T03:54:25.449Z,2.34
2022-12-25T03:57:14.033Z,2.27
2022-12-25T04:00:00.662Z,2.31
2022-12-25T04:02:47.404Z,2.29
2022-12-25T04:05:34.162Z,2.26
2022-12-25T04:08:20.649Z,2.20
2022-12-25T04:11:09.125Z,2.18
2022-12-25T04:13:55.690Z,2.22
2022-12-25T04:16:41.523Z,2.24
2022-12-25T04:19:29.046Z,2.18
2022-12-25T04:22:15.596Z,2.27
2022-12-25T04:25:02.309Z,2.27
2022-12-25T04:27:50.459Z,2.35
2022-12-25T04:30:36.997Z,2.49
2022-12-25T04:33:32.075Z,2.61
2022-12-25T04:36:13.184Z,2.62
2022-12-25T04:38:43.044Z,2.59
2022-12-25T04:41:14.290Z,2.51
2022-12-25T04:43:44.877Z,2.45
2022-12-25T04:46:14.063Z,2.48
2022-12-25T04:48:43.206Z,2.53
2022-12-25T04:51:17.876Z,2.66
2022-12-25T04:53:51.099Z,2.59
2022-12-25T04:56:21.189Z,2.43
2022-12-25T04:58:54.581Z,2.40
2022-12-25T05:01:24.174Z,2.39
2022-12-25T05:03:53.417Z,2.47
2022-12-25T05:06:22.830Z,2.43
2022-12-25T05:08:51.982Z,2.40
2022-12-25T05:11:21.174Z,2.31
2022-12-25T05:13:51.797Z,2.34
2022-12-25T05:16:22.314Z,2.35
2022-12-25T05:18:52.512Z,2.37
2022-12-25T05:21:22.295Z,2.36
2022-12-25T05:23:52.172Z,2.34
2022-12-25T05:26:25.158Z,2.34
2022-12-25T05:28:56.668Z,2.31
2022-12-25T05:31:25.786Z,2.34
2022-12-25T05:33:54.920Z,2.33
2022-12-25T05:36:24.173Z,2.35
2022-12-25T05:38:53.351Z,2.45
2022-12-25T05:41:22.565Z,2.45
2022-12-25T05:43:51.628Z,2.46
2022-12-25T05:46:22.142Z,2.41
2022-12-25T05:48:51.244Z,2.37
2022-12-25T05:51:20.417Z,2.36
2022-12-25T05:53:49.988Z,2.46
2022-12-25T05:56:19.101Z,2.36
2022-12-25T05:58:48.195Z,2.18
2022-12-25T06:01:20.973Z,2.08
2022-12-25T06:03:51.676Z,1.95
2022-12-25T06:06:21.199Z,1.82
2022-12-25T06:08:50.271Z,1.92
2022-12-25T06:11:19.357Z,1.81
2022-12-25T06:13:52.015Z,1.69
2022-12-25T06:16:22.009Z,1.85
2022-12-25T06:18:53.234Z,1.94
2022-12-25T06:21:22.284Z,1.77
2022-12-25T06:23:51.800Z,1.70
2022-12-25T06:26:21.734Z,1.53
2022-12-25T06:28:51.031Z,1.47
2022-12-25T06:31:23.375Z,1.45
2022-12-25T06:33:53.998Z,1.54
2022-12-25T06:36:25.840Z,1.61
2022-12-25T06:38:55.359Z,1.64
2022-12-25T06:41:26.788Z,1.59
2022-12-25T06:43:58.717Z,1.50
2022-12-25T06:46:30.764Z,1.37
2022-12-25T06:49:01.933Z,1.31
2022-12-25T06:51:33.203Z,1.36
2022-12-25T06:54:04.356Z,1.37
2022-12-25T06:56:35.168Z,1.34
2022-12-25T06:59:07.057Z,1.31
2022-12-25T07:01:40.839Z,1.37
2022-12-25T07:04:17.350Z,1.46
2022-12-25T07:06:46.848Z,1.60
2022-12-25T07:09:16.028Z,1.68
2022-12-25T07:11:45.194Z,1.74
2022-12-25T07:14:23.740Z,1.85
2022-12-25T07:16:53.704Z,2.03
2022-12-25T07:19:24.367Z,2.08
2022-12-25T07:21:53.508Z,2.16
2022-12-25T07:24:23.214Z,2.09
2022-12-25T07:26:53.187Z,2.10
2022-12-25T07:29:22.333Z,2.05
2022-12-25T07:31:51.553Z,2.05
2022-12-25T07:34:21.149Z,2.05
2022-12-25T07:36:52.132Z,2.29
2022-12-25T07:39:21.579Z,2.28
2022-12-25T07:41:51.094Z,2.21
2022-12-25T07:44:20.528Z,2.34
2022-12-25T07:46:49.907Z,2.40
2022-12-25T07:49:19.113Z,2.50
2022-12-25T07:51:48.280Z,2.55
2022-12-25T07:54:19.033Z,2.85
2022-12-25T07:56:51.195Z,2.94
2022-12-25T07:59:20.756Z,2.82
2022-12-25T08:01:51.325Z,2.71
2022-12-25T08:04:20.736Z,2.71
2022-12-25T08:06:49.926Z,2.89
2022-12-25T08:09:20.528Z,3.01
2022-12-25T08:11:49.694Z,3.00
2022-12-25T08:14:19.029Z,2.98
2022-12-25T08:16:48.180Z,3.00
2022-12-25T08:19:17.453Z,2.99
2022-12-25T08:21:51.929Z,2.97
2022-12-25T08:24:30.523Z,3.04
2022-12-25T08:26:59.665Z,3.23
2022-12-25T08:29:29.546Z,3.30
2022-12-25T08:31:59.562Z,3.41
2022-12-25T08:34:28.715Z,3.52
2022-12-25T08:36:57.981Z,3.61
2022-12-25T08:39:28.679Z,3.75
2022-12-25T08:41:57.974Z,3.78
2022-12-25T08:44:27.482Z,4.01
2022-12-25T08:46:59.548Z,4.02
2022-12-25T08:49:29.199Z,4.00
2022-12-25T08:51:58.632Z,3.92
2022-12-25T08:54:31.027Z,3.86
2022-12-25T08:57:02.826Z,3.90
2022-12-25T08:59:32.709Z,4.09
2022-12-25T09:02:01.945Z,4.29
2022-12-25T09:04:31.108Z,4.41
2022-12-25T09:07:00.216Z,4.55
2022-12-25T09:09:31.892Z,4.60
2022-12-25T09:12:01.046Z,4.73
2022-12-25T09:14:31.455Z,4.79
2022-12-25T09:17:00.562Z,4.90
2022-12-25T09:19:29.853Z,5.11
2022-12-25T09:21:59.015Z,5.06
2022-12-25T09:24:28.346Z,5.17
2022-12-25T09:26:58.869Z,5.35
2022-12-25T09:29:27.982Z,5.55
2022-12-25T09:31:57.304Z,5.77
2022-12-25T09:34:26.374Z,5.93
2022-12-25T09:36:55.570Z,6.10
2022-12-25T09:39:24.862Z,6.26
2022-12-25T09:42:01.012Z,6.41
2022-12-25T09:44:36.078Z,6.44
2022-12-25T09:47:11.933Z,6.54
2022-12-25T09:49:49.645Z,6.55
2022-12-25T09:52:25.248Z,6.63
2022-12-25T09:55:00.995Z,6.74
2022-12-25T09:57:31.510Z,6.75
2022-12-25T10:00:00.778Z,6.80
2022-12-25T10:03:18.094Z,7.04
2022-12-25T10:06:15.323Z,7.26
2022-12-25T10:09:14.078Z,7.44
2022-12-25T10:12:05.348Z,7.48
2022-12-25T10:14:46.906Z,7.45
2022-12-25T10:17:33.828Z,7.46
2022-12-25T10:20:15.084Z,7.42
2022-12-25T10:22:47.766Z,7.36
2022-12-25T10:25:21.054Z,7.24
2022-12-25T10:27:54.029Z,7.10
2022-12-25T10:30:27.613Z,7.09
2022-12-25T10:32:58.982Z,7.17
2022-12-25T10:35:32.863Z,7.27
2022-12-25T10:38:04.308Z,7.32
2022-12-25T10:40:45.425Z,7.46
2022-12-25T10:43:20.931Z,7.60
2022-12-25T10:45:51.774Z,7.80
2022-12-25T10:48:26.485Z,7.99
2022-12-25T10:50:55.656Z,8.15
2022-12-25T10:53:27.749Z,8.30
2022-12-25T10:55:59.972Z,8.46
2022-12-25T10:58:30.341Z,8.67
2022-12-25T11:01:05.002Z,8.86
2022-12-25T11:03:38.621Z,9.06
2022-12-25T11:06:22.415Z,9.17
2022-12-25T11:08:55.495Z,9.26
2022-12-25T11:11:25.403Z,9.44
2022-12-25T11:13:57.956Z,9.62
2022-12-25T11:16:32.168Z,9.74
2022-12-25T11:19:01.850Z,9.79
2022-12-25T11:21:35.273Z,9.88
2022-12-25T11:24:07.111Z,9.92
2022-12-25T11:26:49.742Z,9.90
2022-12-25T11:29:32.230Z,9.75
2022-12-25T11:32:06.373Z,9.70
2022-12-25T11:34:42.220Z,9.68
2022-12-25T11:37:17.876Z,9.69
2022-12-25T11:39:47.054Z,9.76
2022-12-25T11:42:23.796Z,9.91
2022-12-25T11:45:02.342Z,10.06
2022-12-25T11:47:39.930Z,10.22
2022-12-25T11:50:24.227Z,10.31
2022-12-25T11:52:54.342Z,10.41
2022-12-25T11:55:36.647Z,10.51
2022-12-25T11:58:16.049Z,10.58
2022-12-25T12:00:51.042Z,10.71
2022-12-25T12:03:28.162Z,10.86
2022-12-25T12:06:03.035Z,11.03
2022-12-25T12:08:34.464Z,11.03
2022-12-25T12:11:20.682Z,11.12
2022-12-25T12:14:13.574Z,11.17
2022-12-25T12:16:42.872Z,11.18
2022-12-25T12:19:25.738Z,11.28
2022-12-25T12:21:58.482Z,11.35
2022-12-25T12:24:34.703Z,11.34
2022-12-25T12:27:07.053Z,11.31
2022-12-25T12:29:44.446Z,11.34
2022-12-25T12:32:29.041Z,11.46
2022-12-25T12:34:59.987Z,11.67
2022-12-25T12:37:34.002Z,11.83
2022-12-25T12:40:06.475Z,11.99
2022-12-25T12:42:46.350Z,12.17
2022-12-25T12:45:21.974Z,12.33
2022-12-25T12:47:53.088Z,12.59
2022-12-25T12:50:34.920Z,13.42
2022-12-25T12:53:29.892Z,14.32
2022-12-25T12:56:11.714Z,14.63
2022-12-25T12:58:50.048Z,14.48
2022-12-25T13:01:40.866Z,14.12
2022-12-25T13:04:41.820Z,13.94
2022-12-25T13:07:33.119Z,13.78
2022-12-25T13:10:14.745Z,13.65
2022-12-25T13:12:43.934Z,13.60
2022-12-25T13:15:15.307Z,13.66
2022-12-25T13:17:46.902Z,13.70
2022-12-25T13:20:24.939Z,14.03
2022-12-25T13:22:55.473Z,14.51
2022-12-25T13:25:25.718Z,14.86
2022-12-25T13:27:59.631Z,15.31
2022-12-25T13:30:29.080Z,15.56
2022-12-25T13:33:00.254Z,15.45
2022-12-25T13:35:29.435Z,15.29
2022-12-25T13:38:00.154Z,15.14
2022-12-25T13:40:30.070Z,14.98
2022-12-25T13:43:00.911Z,14.95
2022-12-25T13:45:34.013Z,15.02
2022-12-25T13:48:15.888Z,15.18
2022-12-25T13:50:48.669Z,15.46
2022-12-25T13:53:19.354Z,15.78
2022-12-25T13:55:53.399Z,16.20
2022-12-25T13:58:28.615Z,16.74
2022-12-25T14:00:59.883Z,17.07
2022-12-25T14:03:36.992Z,17.01
2022-12-25T14:06:15.416Z,16.57
2022-12-25T14:08:47.357Z,16.24
2022-12-25T14:11:20.567Z,15.88
2022-12-25T14:13:53.100Z,15.47
2022-12-25T14:16:22.997Z,14.97
2022-12-25T14:18:54.911Z,14.50
2022-12-25T14:21:30.209Z,14.01
2022-12-25T14:24:01.250Z,13.53
2022-12-25T14:26:34.239Z,13.10
2022-12-25T14:29:17.148Z,12.75
2022-12-25T14:31:48.383Z,12.51
2022-12-25T14:34:23.089Z,12.32
2022-12-25T14:36:53.541Z,12.60
2022-12-25T14:39:33.687Z,13.28
2022-12-25T14:42:14.470Z,13.96
2022-12-25T14:44:43.598Z,13.67
2022-12-25T14:47:20.252Z,12.23
2022-12-25T14:49:49.834Z,11.30
2022-12-25T14:52:22.940Z,10.38
2022-12-25T14:54:58.127Z,9.82
2022-12-25T14:57:31.999Z,9.40
2022-12-25T15:00:07.963Z,9.01
2022-12-25T15:02:46.795Z,8.66
2022-12-25T15:05:32.189Z,8.33
2022-12-25T15:08:26.591Z,7.94
2022-12-25T15:11:01.880Z,7.65
2022-12-25T15:13:32.661Z,7.40
2022-12-25T15:16:07.714Z,7.19
2022-12-25T15:18:42.071Z,7.03
2022-12-25T15:21:17.904Z,6.85
2022-12-25T15:23:47.362Z,6.68
2022-12-25T15:26:18.229Z,6.56
2022-12-25T15:28:47.403Z,6.44
2022-12-25T15:31:23.609Z,6.28
2022-12-25T15:33:53.672Z,6.15
2022-12-25T15:36:23.619Z,6.07
2022-12-25T15:38:53.443Z,5.88
2022-12-25T15:41:46.414Z,5.73
2022-12-25T15:44:16.775Z,5.54
2022-12-25T15:46:46.441Z,5.47
2022-12-25T15:49:17.213Z,5.28
2022-12-25T15:51:47.198Z,5.18
2022-12-25T15:54:16.496Z,5.14
2022-12-25T15:56:50.039Z,5.20
2022-12-25T15:59:21.735Z,4.88
2022-12-25T16:01:53.688Z,4.67
2022-12-25T16:04:24.189Z,4.75
2022-12-25T16:06:54.321Z,4.71
2022-12-25T16:09:23.802Z,4.44
2022-12-25T16:11:54.705Z,4.34
2022-12-25T16:14:23.933Z,4.24
2022-12-25T16:16:53.190Z,4.21
2022-12-25T16:19:22.195Z,4.12
2022-12-25T16:21:51.376Z,4.06
2022-12-25T16:24:20.528Z,3.96
2022-12-25T16:26:49.960Z,3.89
2022-12-25T16:29:20.445Z,3.79
2022-12-25T16:31:49.634Z,3.70
2022-12-25T16:34:18.752Z,3.60
2022-12-25T16:36:47.872Z,3.48
2022-12-25T16:39:16.952Z,3.48
2022-12-25T16:41:46.923Z,3.47
2022-12-25T16:44:16.092Z,3.38
2022-12-25T16:46:46.740Z,3.36
2022-12-25T16:49:15.886Z,3.31
2022-12-25T16:51:45.006Z,3.23
2022-12-25T16:54:14.129Z,3.21
2022-12-25T16:56:43.314Z,3.22
2022-12-25T16:59:13.302Z,3.04
2022-12-25T17:01:44.089Z,3.06
2022-12-25T17:04:15.460Z,2.90
2022-12-25T17:06:47.334Z,2.86
2022-12-25T17:09:17.101Z,3.16
2022-12-25T17:11:51.912Z,3.18
2022-12-25T17:14:25.582Z,3.21
2022-12-25T17:17:00.682Z,3.28
2022-12-25T17:19:31.638Z,3.30
2022-12-25T17:22:01.210Z,3.24
2022-12-25T17:24:30.716Z,3.34
2022-12-25T17:27:00.031Z,3.18
2022-12-25T17:29:29.558Z,2.96
2022-12-25T17:32:01.850Z,2.76
2022-12-25T17:34:33.032Z,2.68
2022-12-25T17:37:03.164Z,2.65
2022-12-25T17:39:35.650Z,2.74
2022-12-25T17:42:05.608Z,2.86
2022-12-25T17:44:35.045Z,2.82
2022-12-25T17:47:04.777Z,2.73
2022-12-25T17:49:36.825Z,2.61
2022-12-25T17:52:06.671Z,2.49
2022-12-25T17:54:40.839Z,2.51
2022-12-25T17:57:11.459Z,2.38
2022-12-25T17:59:40.961Z,2.51
2022-12-25T18:02:12.143Z,2.53
2022-12-25T18:04:47.369Z,2.56
2022-12-25T18:07:17.674Z,2.47
2022-12-25T18:09:47.193Z,2.57
2022-12-25T18:12:16.586Z,2.64
2022-12-25T18:14:45.931Z,2.54
2022-12-25T18:17:15.474Z,2.38
2022-12-25T18:19:46.019Z,2.25
2022-12-25T18:22:15.698Z,2.04
2022-12-25T18:24:48.523Z,1.92
2022-12-25T18:27:23.378Z,1.83
2022-12-25T18:29:55.488Z,1.74
2022-12-25T18:32:27.959Z,2.01
2022-12-25T18:34:58.861Z,1.93
2022-12-25T18:37:31.926Z,1.97
2022-12-25T18:40:05.092Z,1.97
2022-12-25T18:42:40.095Z,2.12
2022-12-25T18:45:12.653Z,2.21
2022-12-25T18:47:41.962Z,2.08
2022-12-25T18:50:13.519Z,1.86
2022-12-25T18:52:49.304Z,1.89
2022-12-25T18:55:20.777Z,1.73
2022-12-25T18:57:50.155Z,1.70
2022-12-25T19:00:20.251Z,1.76
2022-12-25T19:02:49.698Z,1.78
2022-12-25T19:05:20.371Z,1.83
2022-12-25T19:07:49.731Z,1.55
2022-12-25T19:10:19.452Z,1.45
2022-12-25T19:12:48.728Z,1.61
2022-12-25T19:15:18.118Z,1.63
2022-12-25T19:17:47.347Z,1.70
2022-12-25T19:20:16.881Z,1.56
2022-12-25T19:22:47.745Z,1.49
2022-12-25T19:25:18.580Z,1.39
2022-12-25T19:27:48.197Z,1.41
2022-12-25T19:30:18.471Z,1.37
2022-12-25T19:32:48.774Z,1.20
2022-12-25T19:35:19.652Z,1.16
2022-12-25T19:37:50.326Z,1.11
2022-12-25T19:40:20.452Z,1.14
2022-12-25T19:42:50.083Z,1.17
2022-12-25T19:45:21.986Z,1.13
2022-12-25T19:47:52.986Z,1.17
2022-12-25T19:50:22.408Z,1.18
2022-12-25T19:52:53.256Z,1.13
2022-12-25T19:55:22.789Z,1.22
2022-12-25T19:57:52.440Z,1.01
2022-12-25T20:00:23.407Z,0.93
2022-12-25T20:02:54.048Z,0.89
2022-12-25T20:05:29.371Z,0.79
2022-12-25T20:08:00.333Z,0.89
2022-12-25T20:10:32.963Z,1.04
2022-12-25T20:13:02.150Z,1.05
2022-12-25T20:15:33.121Z,1.16
2022-12-25T20:18:04.158Z,0.98
2022-12-25T20:20:33.872Z,0.97
2022-12-25T20:23:05.818Z,0.87
2022-12-25T20:25:35.083Z,0.83
2022-12-25T20:28:04.405Z,0.80
2022-12-25T20:30:33.632Z,0.70
2022-12-25T20:33:02.884Z,0.79
2022-12-25T20:35:32.104Z,0.97
2022-12-25T20:38:01.410Z,1.02
2022-12-25T20:40:46.807Z,1.16
2022-12-25T20:43:21.324Z,1.02
2022-12-25T20:45:52.888Z,0.94
2022-12-25T20:48:22.365Z,0.82
2022-12-25T20:50:52.433Z,0.68
2022-12-25T20:53:24.567Z,0.67
2022-12-25T20:55:55.289Z,0.94
2022-12-25T20:58:24.353Z,0.72
2022-12-25T21:00:54.160Z,0.54
2022-12-25T21:03:23.607Z,0.38
2022-12-25T21:05:54.843Z,0.32
2022-12-25T21:08:26.773Z,0.48
2022-12-25T21:11:01.081Z,0.45
2022-12-25T21:13:33.101Z,0.52
2022-12-25T21:16:06.209Z,0.53
2022-12-25T21:18:36.834Z,0.57
2022-12-25T21:21:07.905Z,0.54
2022-12-25T21:23:40.115Z,0.72
2022-12-25T21:26:22.076Z,0.41
2022-12-25T21:28:55.672Z,0.31
2022-12-25T21:31:26.504Z,0.16
2022-12-25T21:33:55.893Z,0.09
2022-12-25T21:36:27.901Z,-0.03
2022-12-25T21:39:00.314Z,-0.09
2022-12-25T21:41:33.595Z,-0.05
2022-12-25T21:44:03.440Z,-0.12
2022-12-25T21:46:33.949Z,-0.24
2022-12-25T21:49:03.437Z,-0.19
2022-12-25T21:51:52.739Z,-0.26
2022-12-25T21:54:24.282Z,-0.22
2022-12-25T21:56:55.295Z,-0.20
2022-12-25T21:59:24.595Z,-0.20
2022-12-25T22:01:54.334Z,-0.20
2022-12-25T22:04:24.808Z,-0.15
2022-12-25T22:07:11.550Z,-0.10
2022-12-25T22:09:40.764Z,-0.13
2022-12-25T22:12:34.173Z,-0.16
2022-12-25T22:15:06.819Z,-0.23
2022-12-25T22:17:56.599Z,-0.15
2022-12-25T22:20:28.255Z,-0.25
2022-12-25T22:22:58.016Z,-0.28
2022-12-25T22:25:27.687Z,-0.22
2022-12-25T22:27:59.368Z,-0.23
2022-12-25T22:30:30.871Z,-0.19
2022-12-25T22:33:00.081Z,-0.19
2022-12-25T22:35:29.274Z,-0.16
2022-12-25T22:37:58.840Z,-0.11
2022-12-25T22:40:28.171Z,-0.24
2022-12-25T22:42:58.808Z,-0.34
2022-12-25T22:45:27.858Z,-0.29
2022-12-25T22:47:57.144Z,-0.30
2022-12-25T22:50:26.239Z,-0.18
2022-12-25T22:52:55.411Z,-0.09
2022-12-25T22:55:24.701Z,0.09
2022-12-25T22:57:53.819Z,0.04
2022-12-25T23:00:24.465Z,0.04
2022-12-25T23:02:53.746Z,-0.15
2022-12-25T23:05:23.001Z,-0.18
2022-12-25T23:07:53.801Z,-0.29
2022-12-25T23:10:23.165Z,-0.39
2022-12-25T23:13:09.464Z,-0.44
2022-12-25T23:15:41.579Z,-0.41
2022-12-25T23:18:28.408Z,-0.49
2022-12-25T23:21:19.035Z,-0.49
2022-12-25T23:24:04.771Z,-0.49
2022-12-25T23:26:33.882Z,-0.41
2022-12-25T23:29:20.539Z,-0.44
2022-12-25T23:31:53.590Z,-0.48
2022-12-25T23:34:23.510Z,-0.48
2022-12-25T23:36:52.763Z,-0.51
2022-12-25T23:39:22.312Z,-0.37
2022-12-25T23:41:51.573Z,-0.39
2022-12-25T23:44:20.994Z,-0.40
2022-12-25T23:46:52.738Z,-0.29
2022-12-25T23:49:23.930Z,-0.18
2022-12-25T23:51:53.760Z,0.08
2022-12-25T23:54:26.119Z,0.15
2022-12-25T23:56:57.340Z,-0.08
2022-12-25T23:59:27.384Z,-0.12
